Aegean Viii — SXKO — position and weather

sailwx.info

Track history (hours):
 
Tides and Currents Weather Stations Pressure Air Temp Water Temp Dewpoint Dewpoint Depression Visibility Wind Speed Wind Dir Waves Ship Positions

Aegean Viii

Last reported at 2015-Jan-30 16:33 UTC. Time now 2015-Jan-30 17:08 UTC.
Position N 37°58' E 023°36'.

Length 75 m; draft 4.5 m.

Type: Tanker. MMSI: 240732000.

Date/timePositionNaut miles runAvg speedWind from/ knotsBaromVisibWave heightAir tempDewpointWater temp
2015-Jan-30 16:33N 37°58' E 023°36'0 0.0
2015-Jan-30 15:33N 37°58' E 023°36'0 0.1
2015-Jan-30 14:33N 37°57' E 023°36'0 0.4
2015-Jan-30 13:33N 37°57' E 023°36'0 0.0
2015-Jan-30 12:33N 37°57' E 023°36'0 0.0
2015-Jan-30 11:33N 37°57' E 023°36'0 0.0
2015-Jan-30 10:33N 37°57' E 023°36'0 0.0
2015-Jan-30 09:33N 37°57' E 023°36'0 0.0
2015-Jan-30 08:33N 37°57' E 023°36'0 0.0
2015-Jan-30 07:33N 37°57' E 023°36'0 0.0
2015-Jan-30 06:33N 37°57' E 023°36'3 2.6
2015-Jan-30 05:33N 37°58' E 023°33'4 4.3
2015-Jan-30 04:33N 38°02' E 023°32'0 0.0
2015-Jan-30 03:33N 38°02' E 023°32'0 0.0
2015-Jan-30 02:33N 38°02' E 023°32'0 0.0
2015-Jan-30 01:33N 38°02' E 023°32'0 0.0
2015-Jan-30 00:33N 38°02' E 023°32'0 0.0
2015-Jan-29 23:33N 38°02' E 023°32'0 0.0
2015-Jan-29 12:33N 38°02' E 023°32'3 2.6
2015-Jan-29 11:33N 38°02' E 023°35'0 0.4
2015-Jan-29 10:34N 38°02' E 023°36'0 0.0
2015-Jan-29 09:33N 38°02' E 023°36'0 0.0
2015-Jan-29 08:33N 38°02' E 023°36'0 0.0
2015-Jan-29 07:25N 38°02' E 023°36'0 0.0
2015-Jan-29 06:34N 38°02' E 023°36'0 0.4
2015-Jan-29 05:34N 38°02' E 023°35'3 2.5
2015-Jan-29 04:34N 38°02' E 023°32'0 0.0
2015-Jan-28 12:33N 38°02' E 023°32'0 0.0
2015-Jan-28 11:33N 38°02' E 023°32'3 3.0
2015-Jan-28 10:33N 37°59' E 023°33'3 3.0
2015-Jan-28 09:33N 37°57' E 023°35'0 0.0
2015-Jan-28 08:33N 37°57' E 023°35'0 0.3
2015-Jan-28 07:33N 37°57' E 023°36'0 0.0
2015-Jan-28 06:33N 37°57' E 023°36'0 0.3
2015-Jan-28 05:33N 37°57' E 023°36'6 6.0
2015-Jan-28 04:33N 38°02' E 023°32'0 0.0
2015-Jan-28 03:33N 38°02' E 023°32'0 0.0
2015-Jan-28 02:33N 38°02' E 023°32'0 0.0
2015-Jan-28 01:33N 38°02' E 023°32'0 0.0
2015-Jan-28 00:33N 38°02' E 023°32'0 0.0
2015-Jan-27 23:33N 38°02' E 023°32'0 0.0
2015-Jan-27 12:05N 38°02' E 023°32'0 0.0
2015-Jan-27 11:33N 38°02' E 023°32'0 0.0
2015-Jan-27 10:33N 38°02' E 023°32'0 0.0
2015-Jan-27 09:33N 38°02' E 023°32'0 0.0
2015-Jan-27 08:33N 38°02' E 023°32'0 0.0
2015-Jan-27 07:33N 38°02' E 023°32'0 0.0
2015-Jan-27 06:33N 38°02' E 023°32'0 0.0
2015-Jan-27 05:33N 38°02' E 023°32'0 0.0
2015-Jan-26 17:33N 38°02' E 023°32'3 3.0
2015-Jan-26 16:33N 38°02' E 023°36'0 0.0
2015-Jan-26 15:33N 38°02' E 023°36'0 0.0
2015-Jan-26 14:33N 38°02' E 023°36'0 0.4
2015-Jan-26 13:33N 38°02' E 023°35'0 0.1
2015-Jan-26 12:33N 38°02' E 023°35'3 2.7
2015-Jan-26 11:33N 38°02' E 023°32'0 0.1
2015-Jan-26 10:33N 38°02' E 023°32'0 0.0
2015-Jan-26 09:33N 38°02' E 023°32'0 0.0
2015-Jan-26 08:33N 38°02' E 023°32'0 0.0
2015-Jan-26 07:33N 38°02' E 023°32'0 0.0
2015-Jan-26 06:34N 38°02' E 023°32'0 0.0
2015-Jan-26 05:33N 38°02' E 023°32'0 0.0
2015-Jan-25 13:33N 38°02' E 023°32'5 5.0
2015-Jan-25 12:33N 37°57' E 023°34'7 7.3
2015-Jan-25 11:33N 37°50' E 023°31'0 0.1
2015-Jan-25 10:33N 37°50' E 023°31'0 0.1
2015-Jan-25 09:33N 37°50' E 023°31'0 0.1
2015-Jan-25 08:33N 37°50' E 023°31'7 7.2
2015-Jan-25 07:33N 37°57' E 023°34'5 1.0
2015-Jan-25 02:04N 38°02' E 023°32'0 0.0
2015-Jan-25 01:34N 38°02' E 023°32'0 0.0
2015-Jan-25 00:33N 38°02' E 023°32'0 0.0
2015-Jan-24 23:33N 38°02' E 023°32'0 0.0
2015-Jan-24 22:33N 38°02' E 023°32'0 0.0
2015-Jan-24 21:33N 38°02' E 023°32'0 0.0
2015-Jan-24 20:33N 38°02' E 023°32'0 0.0
2015-Jan-24 19:33N 38°02' E 023°32'0 0.0
2015-Jan-24 18:33N 38°02' E 023°32'0 0.0
2015-Jan-24 07:33N 38°02' E 023°32'0 0.0
2015-Jan-24 06:33N 38°02' E 023°32'0 0.2
2015-Jan-24 05:33N 38°02' E 023°32'0 0.2
2015-Jan-24 04:33N 38°02' E 023°32'0 0.0
2015-Jan-24 03:33N 38°02' E 023°32'0 0.0
2015-Jan-23 11:34N 38°02' E 023°32'5 4.6
2015-Jan-23 10:34N 37°58' E 023°33'4 4.3
2015-Jan-23 09:34N 37°53' E 023°32'0 0.0
2015-Jan-23 08:34N 37°53' E 023°32'0 0.0
2015-Jan-23 07:33N 37°53' E 023°32'3 2.7
2015-Jan-23 06:33N 37°56' E 023°34'6 5.9
2015-Jan-23 05:33N 38°02' E 023°35'0 0.0
2015-Jan-23 04:33N 38°02' E 023°34'0 0.0
2015-Jan-23 03:33N 38°02' E 023°34'1 0.9
2015-Jan-23 02:33N 38°02' E 023°36'0 0.0
2015-Jan-23 01:33N 38°02' E 023°36'0 0.0
2015-Jan-23 00:32N 38°02' E 023°36'1 0.9
2015-Jan-22 23:33N 38°02' E 023°35'0 0.0
2015-Jan-22 22:34N 38°02' E 023°35'0 0.0
2015-Jan-22 21:33N 38°02' E 023°35'0 0.1
2015-Jan-22 20:33N 38°02' E 023°35'0 0.0
2015-Jan-22 19:32N 38°02' E 023°35'2 2.1
2015-Jan-22 18:32N 38°02' E 023°32'8 8.1
2015-Jan-22 17:33N 37°57' E 023°24'7 6.5
2015-Jan-22 16:34N 37°54' E 023°31'6 5.9
2015-Jan-22 15:33N 37°58' E 023°37'0 0.0
2015-Jan-22 14:33N 37°58' E 023°37'0 0.0
2015-Jan-22 13:33N 37°58' E 023°37'1 0.8
2015-Jan-22 12:33N 37°57' E 023°36'3 2.5
2015-Jan-22 11:33N 37°55' E 023°33'0 0.4
2015-Jan-22 10:33N 37°55' E 023°33'0 0.0
2015-Jan-22 09:33N 37°55' E 023°33'0 0.0
2015-Jan-22 08:33N 37°55' E 023°33'1 1.1
2015-Jan-22 07:33N 37°56' E 023°34'7 6.7
2015-Jan-22 06:33N 38°02' E 023°32'0 0.0
2015-Jan-22 05:33N 38°02' E 023°32'0 0.0
2015-Jan-22 04:33N 38°02' E 023°32'0 0.0
2015-Jan-22 03:33N 38°02' E 023°32'0 0.0
2015-Jan-22 02:33N 38°02' E 023°32'0 0.0
2015-Jan-22 01:33N 38°02' E 023°32'0 0.0
2015-Jan-22 00:33N 38°02' E 023°32'0 0.0
2015-Jan-21 23:33N 38°02' E 023°32'0 0.0
2015-Jan-21 22:50N 38°02' E 023°32'0 0.0
2015-Jan-21 15:09N 38°02' E 023°32'0 0.0
2015-Jan-21 14:34N 38°02' E 023°32'3 3.0
2015-Jan-21 13:33N 38°02' E 023°36'0 0.0
2015-Jan-21 12:34N 38°02' E 023°36'0 0.0
2015-Jan-21 11:33N 38°02' E 023°36'0 0.0
2015-Jan-21 10:33N 38°02' E 023°36'0 0.0
2015-Jan-21 09:34N 38°02' E 023°36'0 0.0
2015-Jan-21 08:33N 38°02' E 023°36'0 0.0
2015-Jan-21 07:34N 38°02' E 023°36'0 0.0
2015-Jan-21 06:34N 38°02' E 023°36'1 0.6
2015-Jan-21 05:34N 38°02' E 023°35'2 2.4
2015-Jan-21 04:34N 38°02' E 023°32'0 0.0
2015-Jan-21 03:33N 38°02' E 023°32'  
Track history (hours):
 
Tides and Currents Weather Stations Pressure Air Temp Water Temp Dewpoint Dewpoint Depression Visibility Wind Speed Wind Dir Waves Ship Positions

Aegean Viii

Last reported at 2015-Jan-30 16:33 UTC. Time now 2015-Jan-30 17:08 UTC.
Position N 37°58' E 023°36'.

Length 75 m; draft 4.5 m.

Type: Tanker. MMSI: 240732000.

Date/timePositionNaut miles runAvg speedWind from/ knotsBaromVisibWave heightAir tempDewpointWater temp
2015-Jan-30 16:33N 37°58' E 023°36'0 0.0
2015-Jan-30 15:33N 37°58' E 023°36'0 0.1
2015-Jan-30 14:33N 37°57' E 023°36'0 0.4
2015-Jan-30 13:33N 37°57' E 023°36'0 0.0
2015-Jan-30 12:33N 37°57' E 023°36'0 0.0
2015-Jan-30 11:33N 37°57' E 023°36'0 0.0
2015-Jan-30 10:33N 37°57' E 023°36'0 0.0
2015-Jan-30 09:33N 37°57' E 023°36'0 0.0
2015-Jan-30 08:33N 37°57' E 023°36'0 0.0
2015-Jan-30 07:33N 37°57' E 023°36'0 0.0
2015-Jan-30 06:33N 37°57' E 023°36'3 2.6
2015-Jan-30 05:33N 37°58' E 023°33'4 4.3
2015-Jan-30 04:33N 38°02' E 023°32'0 0.0
2015-Jan-30 03:33N 38°02' E 023°32'0 0.0
2015-Jan-30 02:33N 38°02' E 023°32'0 0.0
2015-Jan-30 01:33N 38°02' E 023°32'0 0.0
2015-Jan-30 00:33N 38°02' E 023°32'0 0.0
2015-Jan-29 23:33N 38°02' E 023°32'0 0.0
2015-Jan-29 12:33N 38°02' E 023°32'3 2.6
2015-Jan-29 11:33N 38°02' E 023°35'0 0.4
2015-Jan-29 10:34N 38°02' E 023°36'0 0.0
2015-Jan-29 09:33N 38°02' E 023°36'0 0.0
2015-Jan-29 08:33N 38°02' E 023°36'0 0.0
2015-Jan-29 07:25N 38°02' E 023°36'0 0.0
2015-Jan-29 06:34N 38°02' E 023°36'0 0.4
2015-Jan-29 05:34N 38°02' E 023°35'3 2.5
2015-Jan-29 04:34N 38°02' E 023°32'0 0.0
2015-Jan-28 12:33N 38°02' E 023°32'0 0.0
2015-Jan-28 11:33N 38°02' E 023°32'3 3.0
2015-Jan-28 10:33N 37°59' E 023°33'3 3.0
2015-Jan-28 09:33N 37°57' E 023°35'0 0.0
2015-Jan-28 08:33N 37°57' E 023°35'0 0.3
2015-Jan-28 07:33N 37°57' E 023°36'0 0.0
2015-Jan-28 06:33N 37°57' E 023°36'0 0.3
2015-Jan-28 05:33N 37°57' E 023°36'6 6.0
2015-Jan-28 04:33N 38°02' E 023°32'0 0.0
2015-Jan-28 03:33N 38°02' E 023°32'0 0.0
2015-Jan-28 02:33N 38°02' E 023°32'0 0.0
2015-Jan-28 01:33N 38°02' E 023°32'0 0.0
2015-Jan-28 00:33N 38°02' E 023°32'0 0.0
2015-Jan-27 23:33N 38°02' E 023°32'0 0.0
2015-Jan-27 12:05N 38°02' E 023°32'0 0.0
2015-Jan-27 11:33N 38°02' E 023°32'0 0.0
2015-Jan-27 10:33N 38°02' E 023°32'0 0.0
2015-Jan-27 09:33N 38°02' E 023°32'0 0.0
2015-Jan-27 08:33N 38°02' E 023°32'0 0.0
2015-Jan-27 07:33N 38°02' E 023°32'0 0.0
2015-Jan-27 06:33N 38°02' E 023°32'0 0.0
2015-Jan-27 05:33N 38°02' E 023°32'0 0.0
2015-Jan-26 17:33N 38°02' E 023°32'3 3.0
2015-Jan-26 16:33N 38°02' E 023°36'0 0.0
2015-Jan-26 15:33N 38°02' E 023°36'0 0.0
2015-Jan-26 14:33N 38°02' E 023°36'0 0.4
2015-Jan-26 13:33N 38°02' E 023°35'0 0.1
2015-Jan-26 12:33N 38°02' E 023°35'3 2.7
2015-Jan-26 11:33N 38°02' E 023°32'0 0.1
2015-Jan-26 10:33N 38°02' E 023°32'0 0.0
2015-Jan-26 09:33N 38°02' E 023°32'0 0.0
2015-Jan-26 08:33N 38°02' E 023°32'0 0.0
2015-Jan-26 07:33N 38°02' E 023°32'0 0.0
2015-Jan-26 06:34N 38°02' E 023°32'0 0.0
2015-Jan-26 05:33N 38°02' E 023°32'0 0.0
2015-Jan-25 13:33N 38°02' E 023°32'5 5.0
2015-Jan-25 12:33N 37°57' E 023°34'7 7.3
2015-Jan-25 11:33N 37°50' E 023°31'0 0.1
2015-Jan-25 10:33N 37°50' E 023°31'0 0.1
2015-Jan-25 09:33N 37°50' E 023°31'0 0.1
2015-Jan-25 08:33N 37°50' E 023°31'7 7.2
2015-Jan-25 07:33N 37°57' E 023°34'5 1.0
2015-Jan-25 02:04N 38°02' E 023°32'0 0.0
2015-Jan-25 01:34N 38°02' E 023°32'0 0.0
2015-Jan-25 00:33N 38°02' E 023°32'0 0.0
2015-Jan-24 23:33N 38°02' E 023°32'0 0.0
2015-Jan-24 22:33N 38°02' E 023°32'0 0.0
2015-Jan-24 21:33N 38°02' E 023°32'0 0.0
2015-Jan-24 20:33N 38°02' E 023°32'0 0.0
2015-Jan-24 19:33N 38°02' E 023°32'0 0.0
2015-Jan-24 18:33N 38°02' E 023°32'0 0.0
2015-Jan-24 07:33N 38°02' E 023°32'0 0.0
2015-Jan-24 06:33N 38°02' E 023°32'0 0.2
2015-Jan-24 05:33N 38°02' E 023°32'0 0.2
2015-Jan-24 04:33N 38°02' E 023°32'0 0.0
2015-Jan-24 03:33N 38°02' E 023°32'0 0.0
2015-Jan-23 11:34N 38°02' E 023°32'5 4.6
2015-Jan-23 10:34N 37°58' E 023°33'4 4.3
2015-Jan-23 09:34N 37°53' E 023°32'0 0.0
2015-Jan-23 08:34N 37°53' E 023°32'0 0.0
2015-Jan-23 07:33N 37°53' E 023°32'3 2.7
2015-Jan-23 06:33N 37°56' E 023°34'6 5.9
2015-Jan-23 05:33N 38°02' E 023°35'0 0.0
2015-Jan-23 04:33N 38°02' E 023°34'0 0.0
2015-Jan-23 03:33N 38°02' E 023°34'1 0.9
2015-Jan-23 02:33N 38°02' E 023°36'0 0.0
2015-Jan-23 01:33N 38°02' E 023°36'0 0.0
2015-Jan-23 00:32N 38°02' E 023°36'1 0.9
2015-Jan-22 23:33N 38°02' E 023°35'0 0.0
2015-Jan-22 22:34N 38°02' E 023°35'0 0.0
2015-Jan-22 21:33N 38°02' E 023°35'0 0.1
2015-Jan-22 20:33N 38°02' E 023°35'0 0.0
2015-Jan-22 19:32N 38°02' E 023°35'2 2.1
2015-Jan-22 18:32N 38°02' E 023°32'8 8.1
2015-Jan-22 17:33N 37°57' E 023°24'7 6.5
2015-Jan-22 16:34N 37°54' E 023°31'6 5.9
2015-Jan-22 15:33N 37°58' E 023°37'0 0.0
2015-Jan-22 14:33N 37°58' E 023°37'0 0.0
2015-Jan-22 13:33N 37°58' E 023°37'1 0.8
2015-Jan-22 12:33N 37°57' E 023°36'3 2.5
2015-Jan-22 11:33N 37°55' E 023°33'0 0.4
2015-Jan-22 10:33N 37°55' E 023°33'0 0.0
2015-Jan-22 09:33N 37°55' E 023°33'0 0.0
2015-Jan-22 08:33N 37°55' E 023°33'1 1.1
2015-Jan-22 07:33N 37°56' E 023°34'7 6.7
2015-Jan-22 06:33N 38°02' E 023°32'0 0.0
2015-Jan-22 05:33N 38°02' E 023°32'0 0.0
2015-Jan-22 04:33N 38°02' E 023°32'0 0.0
2015-Jan-22 03:33N 38°02' E 023°32'0 0.0
2015-Jan-22 02:33N 38°02' E 023°32'0 0.0
2015-Jan-22 01:33N 38°02' E 023°32'0 0.0
2015-Jan-22 00:33N 38°02' E 023°32'0 0.0
2015-Jan-21 23:33N 38°02' E 023°32'0 0.0
2015-Jan-21 22:50N 38°02' E 023°32'0 0.0
2015-Jan-21 15:09N 38°02' E 023°32'0 0.0
2015-Jan-21 14:34N 38°02' E 023°32'3 3.0
2015-Jan-21 13:33N 38°02' E 023°36'0 0.0
2015-Jan-21 12:34N 38°02' E 023°36'0 0.0
2015-Jan-21 11:33N 38°02' E 023°36'0 0.0
2015-Jan-21 10:33N 38°02' E 023°36'0 0.0
2015-Jan-21 09:34N 38°02' E 023°36'0 0.0
2015-Jan-21 08:33N 38°02' E 023°36'0 0.0
2015-Jan-21 07:34N 38°02' E 023°36'0 0.0
2015-Jan-21 06:34N 38°02' E 023°36'1 0.6
2015-Jan-21 05:34N 38°02' E 023°35'2 2.4
2015-Jan-21 04:34N 38°02' E 023°32'0 0.0
2015-Jan-21 03:33N 38°02' E 023°32'  

Dump ship's entire track history